Overview Statistics Trail Chart Weather Telemetry Raw packets
 

This is the latest recevied weather packets stored in our database for station/object DO1BDB-12. If no packets are shown the sender has not sent any weather packets the latest 10 day(s).

<< 510 511 512 513 514 515 516 >>
Time Temp. Humidity Pressure Rain* Wind** Luminosity Snow
1787730648 23.89° C 46% 102.2 hPa - - - -
1787730582 22.78° C 48% 102.2 hPa - - - -
1787730516 23.89° C 46% 102.2 hPa - - - -
1787730450 24.44° C 46% 102.2 hPa - - - -
1787730384 23.89° C 46% 102.2 hPa - - - -
1787730319 24.44° C 46% 102.2 hPa - - - -
1787730253 22.78° C 49% 102.2 hPa - - - -
1787730187 22.78° C 50% 102.2 hPa - - - -
1787730121 21.67° C 53% 102.2 hPa - - - -
1787730055 21.67° C 53% 102.2 hPa - - - -
1787729989 22.22° C 52% 102.2 hPa - - - -
1787729924 24.44° C 50% 102.2 hPa - - - -
1787729858 23.33° C 49% 102.2 hPa - - - -
1787729792 22.78° C 52% 102.2 hPa - - - -
1787729660 22.78° C 52% 102.2 hPa - - - -
1787729594 23.89° C 50% 102.2 hPa - - - -
1787729528 25° C 49% 102.2 hPa - - - -
1787729463 22.22° C 54% 102.2 hPa - - - -
1787729397 22.22° C 54% 102.2 hPa - - - -
1787729331 23.33° C 52% 102.2 hPa - - - -
1787729265 22.78° C 52% 102.2 hPa - - - -
1787729199 24.44° C 48% 102.2 hPa - - - -
1787729134 23.89° C 50% 102.2 hPa - - - -
1787729068 24.44° C 49% 102.2 hPa - - - -
1787729002 23.89° C 49% 102.2 hPa - - - -

* Rain since midnight (hover to see other rain measurements)
** Current wind speed in m/s (hover to see current wind gust speed)